createdAt,value
2023-04-13T00:01:01.775Z,89.89
2023-04-13T00:03:34.396Z,89.91
2023-04-13T00:06:04.260Z,89.80
2023-04-13T00:08:36.029Z,89.02
2023-04-13T00:11:07.821Z,89.11
2023-04-13T00:13:43.121Z,90.36
2023-04-13T00:16:14.024Z,90.42
2023-04-13T00:18:46.356Z,91.73
2023-04-13T00:21:17.320Z,92.05
2023-04-13T00:23:47.460Z,94.25
2023-04-13T00:26:20.775Z,94.96
2023-04-13T00:28:50.568Z,96.21
2023-04-13T00:31:21.367Z,96.56
2023-04-13T00:33:53.740Z,96.96
2023-04-13T00:36:24.621Z,97.34
2023-04-13T00:38:54.817Z,97.44
2023-04-13T00:41:24.609Z,96.80
2023-04-13T00:43:54.851Z,97.36
2023-04-13T00:46:25.265Z,97.67
2023-04-13T00:48:58.357Z,98.68
2023-04-13T00:51:30.291Z,97.79
2023-04-13T00:54:00.894Z,98.12
2023-04-13T00:56:31.090Z,98.27
2023-04-13T00:59:00.829Z,98.10
2023-04-13T01:01:30.636Z,98.20
2023-04-13T01:04:03.081Z,97.49
2023-04-13T01:06:42.172Z,97.68
2023-04-13T01:09:14.297Z,97.57
2023-04-13T01:11:50.768Z,96.98
2023-04-13T01:14:27.507Z,96.60
2023-04-13T01:17:06.038Z,96.80
2023-04-13T01:19:52.461Z,95.99
2023-04-13T01:22:25.700Z,96.46
2023-04-13T01:25:12.277Z,95.47
2023-04-13T01:27:51.848Z,95.45
2023-04-13T01:30:26.278Z,95.43
2023-04-13T01:32:59.590Z,95.92
2023-04-13T01:35:32.106Z,96.28
2023-04-13T01:38:02.604Z,96.30
2023-04-13T01:40:35.106Z,95.89
2023-04-13T01:43:07.451Z,95.56
2023-04-13T01:45:53.809Z,95.50
2023-04-13T01:48:31.768Z,95.30
2023-04-13T01:51:11.337Z,94.75
2023-04-13T01:53:51.215Z,94.34
2023-04-13T01:56:23.339Z,94.87
2023-04-13T01:59:02.618Z,94.67
2023-04-13T02:01:33.402Z,95.01
2023-04-13T02:04:03.910Z,94.36
2023-04-13T02:06:35.215Z,94.40
2023-04-13T02:09:08.459Z,93.89
2023-04-13T02:11:38.871Z,93.00
2023-04-13T02:14:12.822Z,92.45
2023-04-13T02:16:43.883Z,92.24
2023-04-13T02:19:16.763Z,92.17
2023-04-13T02:21:46.627Z,92.01
2023-04-13T02:24:17.149Z,91.14
2023-04-13T02:26:48.084Z,91.05
2023-04-13T02:29:20.468Z,90.95
2023-04-13T02:31:50.648Z,90.48
2023-04-13T02:34:20.511Z,90.00
2023-04-13T02:36:50.300Z,89.72
2023-04-13T02:39:21.103Z,89.49
2023-04-13T02:41:51.929Z,89.47
2023-04-13T02:44:27.297Z,89.87
2023-04-13T02:47:01.568Z,89.53
2023-04-13T02:49:31.502Z,89.11
2023-04-13T02:52:13.377Z,88.99
2023-04-13T02:54:54.426Z,88.82
2023-04-13T02:57:27.311Z,89.28
2023-04-13T03:00:01.776Z,90.50
2023-04-13T03:02:43.262Z,91.07
2023-04-13T03:05:13.646Z,90.83
2023-04-13T03:07:43.515Z,91.62
2023-04-13T03:10:14.261Z,92.35
2023-04-13T03:12:45.749Z,92.24
2023-04-13T03:15:18.978Z,92.36
2023-04-13T03:17:48.857Z,93.46
2023-04-13T03:20:23.960Z,94.52
2023-04-13T03:22:58.922Z,95.09
2023-04-13T03:25:33.648Z,95.08
2023-04-13T03:28:04.733Z,94.56
2023-04-13T03:30:42.560Z,94.69
2023-04-13T03:33:12.501Z,94.60
2023-04-13T03:35:42.770Z,94.50
2023-04-13T03:38:21.307Z,94.46
2023-04-13T03:40:51.908Z,94.66
2023-04-13T03:43:21.832Z,94.77
2023-04-13T03:46:04.348Z,95.39
2023-04-13T03:48:35.102Z,95.88
2023-04-13T03:51:07.903Z,96.39
2023-04-13T03:53:49.738Z,97.24
2023-04-13T03:56:24.354Z,96.97
2023-04-13T03:58:54.481Z,97.44
2023-04-13T04:01:30.598Z,96.96
2023-04-13T04:04:00.778Z,96.47
2023-04-13T04:06:32.769Z,96.25
2023-04-13T04:09:13.566Z,96.32
2023-04-13T04:11:47.484Z,95.42
2023-04-13T04:14:22.634Z,95.65
2023-04-13T04:17:04.182Z,95.89
2023-04-13T04:19:35.536Z,96.44
2023-04-13T04:22:05.724Z,95.41
2023-04-13T04:24:39.462Z,94.97
2023-04-13T04:27:09.226Z,95.07
2023-04-13T04:29:39.009Z,94.77
2023-04-13T04:32:24.708Z,94.61
2023-04-13T04:34:56.725Z,94.05
2023-04-13T04:37:28.142Z,92.77
2023-04-13T04:40:08.278Z,92.75
2023-04-13T04:42:38.213Z,92.10
2023-04-13T04:45:14.391Z,92.25
2023-04-13T04:47:50.608Z,92.98
2023-04-13T04:50:24.063Z,92.89
2023-04-13T04:53:00.016Z,93.34
2023-04-13T04:55:29.972Z,92.80
2023-04-13T04:58:00.565Z,93.03
2023-04-13T05:00:31.654Z,91.33
2023-04-13T05:03:20.808Z,90.86
2023-04-13T05:05:56.709Z,90.94
2023-04-13T05:08:32.324Z,91.12
2023-04-13T05:11:03.604Z,90.85
2023-04-13T05:13:33.422Z,89.94
2023-04-13T05:16:14.052Z,90.93
2023-04-13T05:18:50.714Z,90.40
2023-04-13T05:21:43.388Z,90.08
2023-04-13T05:24:13.626Z,90.04
2023-04-13T05:26:45.436Z,89.92
2023-04-13T05:29:19.710Z,89.85
2023-04-13T05:31:50.273Z,90.77
2023-04-13T05:34:23.528Z,90.79
2023-04-13T05:37:05.535Z,88.79
2023-04-13T05:39:35.496Z,87.32
2023-04-13T05:42:05.359Z,87.73
2023-04-13T05:44:40.145Z,87.08
2023-04-13T05:47:09.954Z,86.90
2023-04-13T05:49:42.698Z,87.41
2023-04-13T05:52:13.439Z,88.11
2023-04-13T05:54:50.132Z,89.18
2023-04-13T05:57:22.549Z,88.94
2023-04-13T05:59:54.790Z,89.27
2023-04-13T06:02:29.457Z,88.99
2023-04-13T06:05:02.280Z,88.64
2023-04-13T06:07:32.574Z,88.69
2023-04-13T06:10:03.112Z,89.15
2023-04-13T06:12:33.775Z,89.14
2023-04-13T06:15:05.211Z,89.86
2023-04-13T06:17:35.002Z,90.70
2023-04-13T06:20:10.886Z,90.87
2023-04-13T06:22:40.752Z,89.11
2023-04-13T06:25:12.289Z,89.50
2023-04-13T06:27:43.655Z,88.92
2023-04-13T06:30:15.027Z,89.24
2023-04-13T06:32:45.274Z,88.85
2023-04-13T06:35:20.941Z,88.24
2023-04-13T06:37:52.335Z,88.78
2023-04-13T06:40:28.318Z,88.56
2023-04-13T06:43:07.363Z,88.09
2023-04-13T06:45:47.090Z,88.20
2023-04-13T06:48:23.009Z,88.60
2023-04-13T06:51:01.903Z,88.86
2023-04-13T06:53:34.380Z,88.75
2023-04-13T06:56:04.167Z,88.59
2023-04-13T06:58:34.658Z,88.74
2023-04-13T07:01:04.513Z,88.95
2023-04-13T07:03:36.971Z,88.45
2023-04-13T07:06:11.800Z,88.27
2023-04-13T07:08:42.818Z,89.77
2023-04-13T07:11:13.529Z,90.05
2023-04-13T07:13:44.881Z,90.12
2023-04-13T07:16:17.117Z,92.05
2023-04-13T07:18:50.229Z,92.50
2023-04-13T07:21:22.607Z,93.26
2023-04-13T07:24:04.451Z,93.90
2023-04-13T07:26:35.670Z,96.33
2023-04-13T07:29:12.281Z,97.42
2023-04-13T07:31:43.881Z,97.31
2023-04-13T07:34:14.665Z,97.84
2023-04-13T07:36:50.931Z,96.36
2023-04-13T07:39:23.744Z,96.36
2023-04-13T07:41:56.706Z,96.34
2023-04-13T07:44:35.135Z,96.04
2023-04-13T07:47:05.568Z,94.11
2023-04-13T07:49:36.487Z,94.61
2023-04-13T07:52:12.388Z,93.04
2023-04-13T07:54:43.317Z,93.92
2023-04-13T07:57:14.819Z,93.08
2023-04-13T07:59:49.842Z,91.46
2023-04-13T08:02:20.736Z,91.30
2023-04-13T08:04:53.784Z,92.38
2023-04-13T08:07:32.145Z,91.91
2023-04-13T08:10:04.357Z,89.78
2023-04-13T08:12:34.261Z,89.08
2023-04-13T08:15:04.019Z,88.80
2023-04-13T08:17:34.117Z,88.32
2023-04-13T08:20:06.270Z,88.13
2023-04-13T08:22:39.550Z,88.81
2023-04-13T08:25:10.351Z,89.26
2023-04-13T08:27:40.789Z,87.99
2023-04-13T08:30:14.671Z,87.22
2023-04-13T08:32:58.149Z,87.20
2023-04-13T08:35:28.454Z,84.19
2023-04-13T08:38:01.397Z,82.34
2023-04-13T08:40:31.503Z,84.13
2023-04-13T08:43:03.373Z,84.02
2023-04-13T08:45:35.000Z,84.78
2023-04-13T08:48:05.402Z,83.54
2023-04-13T08:50:39.694Z,85.74
2023-04-13T08:53:14.194Z,84.25
2023-04-13T08:55:47.613Z,86.17
2023-04-13T08:58:23.515Z,87.23
2023-04-13T09:00:53.690Z,85.81
2023-04-13T09:03:29.014Z,85.48
2023-04-13T09:06:02.109Z,87.38
2023-04-13T09:08:37.420Z,86.60
2023-04-13T09:11:10.824Z,87.37
2023-04-13T09:13:40.586Z,84.08
2023-04-13T09:16:12.157Z,82.18
2023-04-13T09:18:55.704Z,81.77
2023-04-13T09:21:25.941Z,82.19
2023-04-13T09:23:59.604Z,80.04
2023-04-13T09:26:29.367Z,80.12
2023-04-13T09:28:59.928Z,79.31
2023-04-13T09:31:30.429Z,78.81
2023-04-13T09:34:00.410Z,77.72
2023-04-13T09:36:32.729Z,77.97
2023-04-13T09:39:06.512Z,75.07
2023-04-13T09:41:37.581Z,77.39
2023-04-13T09:44:20.385Z,74.58
2023-04-13T09:47:00.301Z,75.64
2023-04-13T09:49:40.105Z,73.14
2023-04-13T09:52:10.304Z,71.86
2023-04-13T09:54:42.948Z,73.03
2023-04-13T09:57:12.768Z,73.37
2023-04-13T09:59:42.554Z,72.96
2023-04-13T10:02:13.057Z,74.31
2023-04-13T10:04:43.992Z,74.37
2023-04-13T10:07:13.787Z,70.34
2023-04-13T10:09:46.182Z,70.74
2023-04-13T10:12:19.468Z,68.67
2023-04-13T10:14:51.699Z,68.56
2023-04-13T10:17:34.551Z,68.97
2023-04-13T10:20:12.903Z,69.82
2023-04-13T10:22:45.970Z,67.98
2023-04-13T10:25:32.073Z,68.06
2023-04-13T10:28:03.738Z,68.53
2023-04-13T10:30:33.828Z,69.30
2023-04-13T10:33:08.352Z,68.75
2023-04-13T10:35:43.421Z,68.83
2023-04-13T10:38:15.352Z,68.57
2023-04-13T10:40:49.901Z,67.01
2023-04-13T10:43:29.576Z,68.04
2023-04-13T10:46:09.896Z,66.57
2023-04-13T10:48:40.107Z,67.34
2023-04-13T10:51:10.135Z,67.55
2023-04-13T10:53:39.881Z,67.52
2023-04-13T10:56:20.991Z,68.03
2023-04-13T10:58:56.880Z,67.56
2023-04-13T11:01:27.782Z,67.18
2023-04-13T11:04:05.315Z,66.94
2023-04-13T11:06:41.280Z,65.83
2023-04-13T11:09:13.179Z,67.08
2023-04-13T11:11:54.386Z,67.03
2023-04-13T11:14:24.456Z,70.20
2023-04-13T11:16:58.417Z,69.44
2023-04-13T11:19:28.445Z,68.74
2023-04-13T11:21:59.843Z,68.84
2023-04-13T11:24:30.094Z,68.62
2023-04-13T11:27:02.533Z,68.75
2023-04-13T11:29:32.434Z,70.59
2023-04-13T11:32:02.292Z,69.62
2023-04-13T11:34:33.209Z,70.63
2023-04-13T11:37:05.828Z,68.08
2023-04-13T11:39:39.005Z,69.14
2023-04-13T11:42:11.620Z,70.12
2023-04-13T11:44:45.715Z,71.49
2023-04-13T11:47:18.453Z,73.73
2023-04-13T11:49:48.612Z,72.72
2023-04-13T11:52:18.724Z,69.50
2023-04-13T11:54:49.309Z,70.32
2023-04-13T11:57:22.256Z,68.44
2023-04-13T11:59:54.266Z,67.88
2023-04-13T12:02:29.799Z,67.37
2023-04-13T12:05:00.889Z,67.43
2023-04-13T12:07:31.309Z,66.32
2023-04-13T12:10:05.693Z,67.66
2023-04-13T12:15:34.017Z,66.14
2023-04-13T12:18:14.349Z,65.76
2023-04-13T12:20:46.901Z,66.37
2023-04-13T12:23:23.318Z,64.53
2023-04-13T12:25:58.122Z,65.46
2023-04-13T12:28:38.297Z,66.41
2023-04-13T12:31:10.180Z,65.70
2023-04-13T12:33:40.037Z,67.21
2023-04-13T12:36:11.603Z,67.11
2023-04-13T12:38:41.426Z,67.30
2023-04-13T12:41:12.674Z,68.06
2023-04-13T12:43:45.206Z,67.73
2023-04-13T12:46:15.051Z,67.53
2023-04-13T12:48:44.956Z,67.50
2023-04-13T12:51:15.027Z,66.53
2023-04-13T12:53:45.606Z,66.74
2023-04-13T12:56:16.152Z,66.42
2023-04-13T12:58:48.646Z,65.26
2023-04-13T13:01:18.604Z,66.46
2023-04-13T13:03:48.471Z,66.01
2023-04-13T13:06:18.279Z,64.01
2023-04-13T13:08:48.039Z,65.33
2023-04-13T13:11:17.823Z,65.31
2023-04-13T13:13:50.187Z,65.63
2023-04-13T13:16:19.985Z,65.46
2023-04-13T13:19:00.836Z,63.66
2023-04-13T13:21:31.551Z,63.22
2023-04-13T13:24:01.394Z,63.29
2023-04-13T13:26:40.941Z,62.37
2023-04-13T13:29:18.133Z,61.80
2023-04-13T13:31:48.007Z,60.88
2023-04-13T13:34:17.788Z,61.43
2023-04-13T13:36:47.608Z,63.04
2023-04-13T13:39:17.459Z,65.29
2023-04-13T13:41:47.360Z,64.86
2023-04-13T13:44:19.758Z,65.20
2023-04-13T13:46:49.564Z,65.79
2023-04-13T13:49:22.007Z,66.10
2023-04-13T13:52:12.854Z,68.14
2023-04-13T13:54:50.403Z,67.47
2023-04-13T13:57:20.288Z,67.06
2023-04-13T13:59:52.654Z,65.09
2023-04-13T14:02:23.341Z,65.22
2023-04-13T14:04:53.254Z,65.81
2023-04-13T14:07:23.511Z,66.12
2023-04-13T14:09:53.302Z,66.64
2023-04-13T14:12:23.136Z,66.53
2023-04-13T14:14:55.786Z,65.70
2023-04-13T14:17:25.736Z,65.37
2023-04-13T14:19:55.558Z,65.63
2023-04-13T14:22:25.379Z,64.71
2023-04-13T14:24:55.642Z,64.11
2023-04-13T14:27:25.820Z,63.63
2023-04-13T14:29:58.161Z,63.31
2023-04-13T14:32:28.011Z,64.24
2023-04-13T14:34:59.387Z,61.92
2023-04-13T14:37:29.762Z,62.65
2023-04-13T14:39:59.525Z,64.58
2023-04-13T14:42:30.923Z,63.31
2023-04-13T14:45:04.885Z,62.76
2023-04-13T14:47:34.734Z,62.21
2023-04-13T14:50:04.902Z,62.70
2023-04-13T14:52:34.880Z,62.31
2023-04-13T14:55:05.716Z,61.06
2023-04-13T14:57:36.052Z,59.79
2023-04-13T15:00:15.775Z,58.61
2023-04-13T15:02:46.054Z,60.56
2023-04-13T15:05:16.340Z,60.85
2023-04-13T15:07:46.396Z,61.02
2023-04-13T15:10:16.526Z,64.41
2023-04-13T15:12:46.740Z,67.47
2023-04-13T15:15:19.291Z,72.29
2023-04-13T15:17:49.086Z,77.39
2023-04-13T15:20:18.962Z,77.09
2023-04-13T15:22:48.775Z,76.98
2023-04-13T15:25:18.736Z,76.53
2023-04-13T15:27:52.585Z,77.94
2023-04-13T15:30:31.144Z,77.81
2023-04-13T15:33:02.783Z,75.33
2023-04-13T15:35:33.426Z,75.88
2023-04-13T15:38:04.039Z,76.80
2023-04-13T15:40:36.383Z,75.91
2023-04-13T15:43:06.476Z,77.17
2023-04-13T15:45:38.911Z,77.13
2023-04-13T15:48:08.830Z,76.16
2023-04-13T15:50:38.665Z,74.65
2023-04-13T15:53:08.764Z,74.50
2023-04-13T15:55:38.557Z,75.09
2023-04-13T15:58:08.687Z,73.52
2023-04-13T16:00:41.083Z,72.70
2023-04-13T16:03:11.013Z,74.17
2023-04-13T16:05:40.993Z,74.91
2023-04-13T16:08:10.891Z,74.85
2023-04-13T16:10:41.724Z,74.44
2023-04-13T16:13:19.682Z,74.30
2023-04-13T16:15:57.436Z,74.64
2023-04-13T16:18:28.971Z,75.12
2023-04-13T16:21:02.498Z,75.47
2023-04-13T16:23:33.574Z,75.49
2023-04-13T16:26:03.860Z,76.35
2023-04-13T16:28:34.675Z,76.53
2023-04-13T16:31:11.341Z,76.33
2023-04-13T16:33:41.213Z,77.11
2023-04-13T16:36:12.469Z,77.66
2023-04-13T16:38:43.944Z,78.07
2023-04-13T16:41:13.766Z,77.93
2023-04-13T16:43:43.577Z,77.70
2023-04-13T16:46:16.474Z,77.37
2023-04-13T16:48:46.239Z,77.08
2023-04-13T16:51:16.226Z,75.96
2023-04-13T16:53:46.295Z,75.00
2023-04-13T16:56:17.175Z,74.90
2023-04-13T16:58:47.161Z,74.78
2023-04-13T17:01:19.641Z,74.87
2023-04-13T17:03:49.534Z,75.15
2023-04-13T17:06:19.440Z,75.19
2023-04-13T17:08:49.232Z,75.23
2023-04-13T17:11:19.079Z,75.78
2023-04-13T17:13:49.234Z,75.65
2023-04-13T17:16:21.680Z,75.38
2023-04-13T17:18:51.908Z,75.68
2023-04-13T17:21:21.719Z,75.38
2023-04-13T17:23:51.519Z,75.48
2023-04-13T17:26:21.594Z,75.16
2023-04-13T17:28:51.392Z,75.26
2023-04-13T17:31:23.791Z,75.12
2023-04-13T17:33:53.650Z,75.28
2023-04-13T17:36:24.470Z,74.95
2023-04-13T17:38:54.266Z,75.49
2023-04-13T17:41:24.069Z,75.15
2023-04-13T17:43:53.837Z,75.19
2023-04-13T17:46:26.468Z,75.03
2023-04-13T17:48:56.409Z,75.62
2023-04-13T17:51:26.538Z,75.60
2023-04-13T17:53:56.352Z,76.25
2023-04-13T17:56:26.277Z,76.60
2023-04-13T17:58:56.157Z,76.38
2023-04-13T18:01:29.281Z,75.99
2023-04-13T18:03:59.334Z,76.58
2023-04-13T18:06:30.628Z,77.26
2023-04-13T18:09:00.976Z,78.22
2023-04-13T18:11:31.066Z,78.00
2023-04-13T18:14:01.020Z,78.86
2023-04-13T18:16:34.437Z,79.23
2023-04-13T18:19:04.364Z,80.87
2023-04-13T18:21:34.136Z,81.26
2023-04-13T18:24:03.959Z,80.84
2023-04-13T18:26:33.751Z,80.90
2023-04-13T18:29:03.559Z,80.51
2023-04-13T18:31:36.056Z,81.27
2023-04-13T18:34:07.384Z,81.56
2023-04-13T18:36:37.243Z,81.35
2023-04-13T18:39:07.766Z,81.21
2023-04-13T18:41:39.048Z,80.73
2023-04-13T18:44:10.848Z,81.05
2023-04-13T18:46:43.886Z,81.22
2023-04-13T18:49:13.812Z,81.57
2023-04-13T18:51:44.045Z,81.43
2023-04-13T18:54:13.838Z,81.12
2023-04-13T18:56:43.640Z,80.98
2023-04-13T18:59:13.424Z,80.67
2023-04-13T19:01:46.021Z,80.83
2023-04-13T19:04:16.099Z,80.68
2023-04-13T19:06:45.968Z,80.68
2023-04-13T19:09:15.736Z,82.22
2023-04-13T19:11:50.268Z,81.70
2023-04-13T19:14:20.308Z,81.25
2023-04-13T19:16:53.227Z,81.63
2023-04-13T19:19:23.075Z,84.30
2023-04-13T19:21:55.596Z,83.44
2023-04-13T19:24:26.041Z,83.46
2023-04-13T19:26:56.643Z,83.29
2023-04-13T19:29:30.349Z,82.93
2023-04-13T19:32:02.768Z,82.81
2023-04-13T19:34:35.110Z,82.53
2023-04-13T19:37:04.971Z,83.15
2023-04-13T19:39:34.861Z,82.69
2023-04-13T19:42:04.672Z,82.31
2023-04-13T19:44:34.549Z,82.09
2023-04-13T19:47:06.913Z,82.61
2023-04-13T19:49:36.697Z,82.84
2023-04-13T19:52:06.736Z,82.77
2023-04-13T19:54:36.578Z,82.10
2023-04-13T19:57:06.511Z,81.27
2023-04-13T19:59:36.287Z,81.83
2023-04-13T20:02:08.651Z,82.38
2023-04-13T20:04:40.366Z,83.61
2023-04-13T20:07:10.619Z,84.17
2023-04-13T20:09:40.680Z,85.27
2023-04-13T20:12:10.587Z,84.64
2023-04-13T20:14:42.285Z,84.56
2023-04-13T20:17:16.366Z,84.84
2023-04-13T20:19:46.198Z,84.99
2023-04-13T20:22:18.362Z,85.31
2023-04-13T20:24:48.205Z,85.71
2023-04-13T20:27:18.010Z,85.51
2023-04-13T20:29:48.016Z,85.39
2023-04-13T20:32:20.581Z,85.16
2023-04-13T20:34:50.332Z,84.64
2023-04-13T20:37:20.114Z,84.28
2023-04-13T20:39:53.136Z,83.85
2023-04-13T20:42:23.883Z,84.15
2023-04-13T20:44:57.945Z,83.94
2023-04-13T20:47:31.618Z,84.14
2023-04-13T20:50:01.404Z,84.24
2023-04-13T20:52:31.467Z,84.63
2023-04-13T20:55:01.223Z,86.31
2023-04-13T20:57:31.024Z,86.46
2023-04-13T21:00:01.730Z,86.24
2023-04-13T21:02:34.534Z,85.75
2023-04-13T21:05:04.926Z,86.92
2023-04-13T21:07:34.877Z,86.80
2023-04-13T21:10:04.670Z,86.79
2023-04-13T21:12:34.424Z,86.48
2023-04-13T21:15:04.320Z,86.18
2023-04-13T21:17:36.775Z,87.09
2023-04-13T21:20:09.225Z,85.53
2023-04-13T21:22:39.400Z,87.35
2023-04-13T21:25:09.980Z,88.53
2023-04-13T21:27:39.892Z,88.75
2023-04-13T21:30:11.139Z,88.87
2023-04-13T21:32:43.544Z,87.62
2023-04-13T21:35:15.332Z,87.35
2023-04-13T21:37:45.104Z,87.41
2023-04-13T21:40:16.316Z,88.43
2023-04-13T21:42:46.087Z,88.80
2023-04-13T21:45:16.452Z,88.97
2023-04-13T21:47:49.237Z,87.96
2023-04-13T21:50:19.066Z,87.89
2023-04-13T21:52:48.874Z,87.18
2023-04-13T21:55:20.522Z,87.53
2023-04-13T21:57:51.319Z,86.47
2023-04-13T22:00:21.310Z,85.89
2023-04-13T22:02:55.614Z,85.69
2023-04-13T22:05:25.536Z,86.79
2023-04-13T22:07:55.312Z,87.06
2023-04-13T22:10:25.445Z,87.44
2023-04-13T22:12:55.233Z,88.43
2023-04-13T22:15:25.094Z,88.49
2023-04-13T22:17:57.475Z,88.71
2023-04-13T22:20:27.223Z,87.96
2023-04-13T22:22:57.031Z,88.39
2023-04-13T22:25:28.125Z,88.05
2023-04-13T22:27:57.979Z,87.91
2023-04-13T22:30:29.094Z,87.83
2023-04-13T22:33:01.511Z,86.89
2023-04-13T22:35:31.361Z,86.64
2023-04-13T22:38:01.111Z,87.44
2023-04-13T22:40:31.255Z,87.25
2023-04-13T22:43:01.005Z,86.95
2023-04-13T22:45:30.920Z,86.32
2023-04-13T22:48:03.380Z,86.05
2023-04-13T22:50:33.216Z,86.29
2023-04-13T22:53:02.995Z,86.71
2023-04-13T22:55:32.825Z,88.13
2023-04-13T22:58:02.561Z,88.27
2023-04-13T23:00:32.295Z,88.53
2023-04-13T23:03:05.012Z,89.28
2023-04-13T23:05:36.360Z,89.40
2023-04-13T23:08:06.403Z,88.88
2023-04-13T23:10:36.278Z,88.72
2023-04-13T23:13:06.718Z,88.37
2023-04-13T23:15:36.492Z,88.82
2023-04-13T23:18:09.005Z,89.05
2023-04-13T23:20:38.777Z,88.96
2023-04-13T23:23:08.562Z,88.56
2023-04-13T23:25:38.393Z,88.59
2023-04-13T23:28:08.221Z,87.88
2023-04-13T23:30:37.978Z,87.06
2023-04-13T23:33:10.326Z,86.54
2023-04-13T23:35:40.139Z,86.99
2023-04-13T23:38:09.901Z,87.29
2023-04-13T23:40:39.637Z,87.88
2023-04-13T23:43:09.368Z,87.70
2023-04-13T23:45:39.349Z,87.95
2023-04-13T23:48:11.932Z,87.94
2023-04-13T23:50:42.027Z,88.15
2023-04-13T23:53:12.210Z,87.75
2023-04-13T23:55:42.054Z,87.51
2023-04-13T23:58:11.819Z,87.06
